Weather reports worldwide

Advertisment
Concordia Sagittaria, Italy (16107): temperature & dewpoint: 08.10.2019 14:00:00 - 14.10.2019 14:00:00 (CEST)Concordia Sagittaria, Italy (16107): wind speed: 08.10.2019 14:00:00 - 14.10.2019 14:00:00 (CEST)Concordia Sagittaria, Italy (16107): wind direction: 08.10.2019 14:00:00 - 14.10.2019 14:00:00 (CEST)Concordia Sagittaria, Italy (16107): reduced air pressure: 08.10.2019 14:00:00 - 14.10.2019 14:00:00 (CEST)
Date & Time tt [°C] td [°C] ff [km/h] ff [kn] dd ppp [hPa]
14.10.2019 14:00:00 - - - - - -
14.10.2019 13:00:00 19,9 15,9 5 3 SSE 1027,0
14.10.2019 12:00:00 19,8 17,7 5 3 E 1027,3
14.10.2019 11:00:00 17,7 16,1 4 2 NE 1027,5
14.10.2019 10:00:00 14,9 13,4 0 0 N 1027,7
14.10.2019 09:00:00 13,3 11,7 0 0 N 1027,5
14.10.2019 08:00:00 12,4 10,8 4 2 N 1027,1
14.10.2019 07:00:00 12,5 10,9 0 0 N 1027,2
14.10.2019 06:00:00 12,8 11,2 0 0 N 1027,4
14.10.2019 05:00:00 13,2 11,6 0 0 N 1027,4
14.10.2019 04:00:00 13,0 11,4 0 0 N 1027,6
14.10.2019 03:00:00 13,4 11,8 0 0 N 1027,9
14.10.2019 02:00:00 13,2 11,6 0 0 N 1028,2
14.10.2019 01:00:00 13,8 12,2 0 0 N 1028,4
14.10.2019 00:00:00 13,8 12,2 4 2 W 1028,5
13.10.2019 23:00:00 13,7 12,1 0 0 N 1028,5
13.10.2019 22:00:00 13,3 11,7 0 0 N 1028,3
13.10.2019 21:00:00 13,9 12,3 2 1 S 1028,2
13.10.2019 20:00:00 14,9 13,2 2 1 S 1028,2
13.10.2019 19:00:00 16,1 13,7 4 2 S 1027,9
13.10.2019 18:00:00 19,0 14,6 0 0 N 1027,7
13.10.2019 17:00:00 20,6 14,6 4 2 S 1027,7
13.10.2019 16:00:00 20,4 14,7 5 3 SW 1027,9
13.10.2019 15:00:00 20,3 15,0 8 4 SE 1028,2
13.10.2019 14:00:00 19,7 16,1 4 2 SSW 1028,5
13.10.2019 13:00:00 19,1 16,1 0 0 N 1029,0
13.10.2019 12:00:00 17,9 16,2 4 2 E 1029,0
13.10.2019 11:00:00 15,7 14,2 4 2 ENE 1029,1
13.10.2019 10:00:00 13,1 11,6 2 1 WNW 1029,3
13.10.2019 09:00:00 11,0 9,6 0 0 N 1028,8
13.10.2019 08:00:00 8,9 7,3 0 0 N 1028,2
13.10.2019 07:00:00 9,0 7,4 0 0 N 1028,0
13.10.2019 06:00:00 9,0 7,4 0 0 N 1027,9
13.10.2019 05:00:00 9,3 7,7 0 0 N 1028,1
13.10.2019 04:00:00 10,2 8,6 0 0 N 1028,2
13.10.2019 03:00:00 10,8 9,2 0 0 N 1028,6
13.10.2019 02:00:00 10,8 9,2 0 0 N 1028,6
13.10.2019 01:00:00 11,5 9,9 0 0 N 1028,6
13.10.2019 00:00:00 11,1 9,5 0 0 N 1028,8
12.10.2019 23:00:00 11,5 9,9 0 0 N 1028,8
12.10.2019 22:00:00 12,4 10,8 0 0 N 1028,7
12.10.2019 21:00:00 13,2 11,6 0 0 N 1028,5
12.10.2019 20:00:00 14,5 12,3 4 2 SSW 1028,4
12.10.2019 19:00:00 16,9 14,3 4 2 SSE 1027,9
12.10.2019 18:00:00 18,3 14,5 4 2 SSE 1027,6
12.10.2019 17:00:00 20,4 14,2 8 4 SSE 1027,6
12.10.2019 16:00:00 21,0 14,6 2 1 E 1027,8
12.10.2019 15:00:00 21,2 14,3 9 5 SSE 1028,0
12.10.2019 14:00:00 20,0 14,5 2 1 S 1028,6
12.10.2019 13:00:00 20,6 15,9 5 3 ENE 1029,1
12.10.2019 12:00:00 18,1 16,4 4 2 E 1029,2
12.10.2019 11:00:00 15,5 13,8 5 3 NW 1029,1
12.10.2019 10:00:00 13,7 12,1 9 5 N 1029,2
12.10.2019 09:00:00 12,4 10,8 4 2 N 1028,7
12.10.2019 08:00:00 11,2 9,8 8 4 NNW 1028,3
12.10.2019 07:00:00 10,4 9,0 8 4 NNW 1028,0
12.10.2019 06:00:00 9,7 8,1 5 3 NNW 1027,9
12.10.2019 05:00:00 10,2 8,6 4 2 W 1028,0
12.10.2019 04:00:00 10,8 9,2 4 2 NNW 1028,1
12.10.2019 03:00:00 11,0 9,4 5 3 N 1028,1
12.10.2019 02:00:00 10,4 8,8 0 0 N 1028,2
12.10.2019 01:00:00 11,2 9,6 5 3 NE 1028,4
12.10.2019 00:00:00 12,0 10,4 2 1 NNW 1028,3
11.10.2019 23:00:00 11,3 9,7 0 0 N 1028,1
11.10.2019 22:00:00 11,9 10,3 0 0 N 1027,7
11.10.2019 21:00:00 12,6 11,0 4 2 E 1027,7
11.10.2019 20:00:00 14,3 12,5 4 2 SSW 1027,5
11.10.2019 19:00:00 16,7 14,5 5 3 SSE 1027,1
11.10.2019 18:00:00 19,3 14,7 5 3 SE 1026,9
11.10.2019 17:00:00 21,0 15,2 9 5 SSE 1026,9
11.10.2019 16:00:00 22,2 14,7 9 5 SE 1027,2
11.10.2019 15:00:00 22,0 14,3 5 3 E 1027,4
11.10.2019 14:00:00 21,9 13,2 5 3 ESE 1028,3
11.10.2019 13:00:00 21,1 12,2 9 5 E 1028,6
11.10.2019 12:00:00 19,8 11,0 9 5 N 1028,7
11.10.2019 11:00:00 18,7 12,4 8 4 N 1029,2
11.10.2019 10:00:00 15,6 12,8 8 4 NNE 1029,2
11.10.2019 09:00:00 12,9 11,3 9 5 NNE 1028,9
11.10.2019 08:00:00 10,4 8,8 5 3 NNE 1028,0
11.10.2019 07:00:00 10,6 9,0 8 4 NNW 1028,1
11.10.2019 06:00:00 10,5 8,9 8 4 N 1027,7
11.10.2019 05:00:00 10,5 8,9 5 3 N 1027,5
11.10.2019 04:00:00 10,3 8,7 9 5 N 1026,9
11.10.2019 03:00:00 11,0 9,4 2 1 NW 1026,8
11.10.2019 02:00:00 11,2 9,6 5 3 N 1026,6
11.10.2019 01:00:00 11,5 9,9 5 3 N 1026,2
11.10.2019 00:00:00 12,2 10,6 5 3 N 1025,9
10.10.2019 23:00:00 12,5 10,9 8 4 N 1025,2
10.10.2019 22:00:00 12,3 10,7 5 3 N 1024,8
10.10.2019 21:00:00 13,1 11,5 4 2 N 1023,9
10.10.2019 20:00:00 13,8 12,0 2 1 NE 1023,0
10.10.2019 19:00:00 15,7 13,3 4 2 E 1021,9
10.10.2019 18:00:00 18,4 15,2 5 3 E 1021,3
10.10.2019 17:00:00 19,8 15,6 8 4 SSE 1020,7
10.10.2019 16:00:00 20,0 15,4 9 5 SSE 1020,4
10.10.2019 15:00:00 19,9 14,4 4 2 WSW 1020,2
10.10.2019 14:00:00 19,6 15,2 5 3 S 1020,4
10.10.2019 13:00:00 18,6 15,2 4 2 SW 1020,6
10.10.2019 12:00:00 18,6 16,0 5 3 WSW 1020,6
10.10.2019 11:00:00 17,9 16,2 4 2 S 1020,4
10.10.2019 10:00:00 14,9 13,4 2 1 NNW 1020,7
10.10.2019 09:00:00 13,4 11,9 0 0 N 1019,9
10.10.2019 08:00:00 12,7 11,3 2 1 SSW 1019,5
10.10.2019 07:00:00 11,1 9,5 0 0 N 1019,2
10.10.2019 06:00:00 13,0 11,4 4 2 WSW 1019,2
10.10.2019 05:00:00 13,8 12,2 5 3 W 1018,9
10.10.2019 04:00:00 14,5 12,8 5 3 WSW 1018,7
10.10.2019 03:00:00 14,5 12,8 8 4 W 1018,6
10.10.2019 02:00:00 14,2 12,6 0 0 N 1018,7
10.10.2019 01:00:00 14,3 12,7 4 2 NNW 1018,4
10.10.2019 00:00:00 14,3 12,7 13 7 N 1018,1
09.10.2019 23:00:00 14,3 12,7 13 7 N 1018,6
09.10.2019 22:00:00 14,2 12,6 9 5 N 1018,7
09.10.2019 21:00:00 14,6 12,9 8 4 NNW 1018,9
09.10.2019 20:00:00 15,4 13,7 5 3 NNW 1018,9
09.10.2019 19:00:00 15,9 13,5 5 3 N 1019,0
09.10.2019 18:00:00 16,6 13,2 4 2 NNW 1019,4
09.10.2019 17:00:00 17,2 13,2 4 2 N 1019,8
09.10.2019 16:00:00 18,2 13,0 5 3 NNW 1020,2
09.10.2019 15:00:00 18,1 13,5 13 7 NW 1021,1
09.10.2019 14:00:00 17,6 13,6 11 6 NNW 1021,4
09.10.2019 13:00:00 17,2 13,4 11 6 N 1022,0
09.10.2019 12:00:00 16,6 13,4 4 2 WNW 1023,0
09.10.2019 11:00:00 16,3 13,0 4 2 N 1023,3
09.10.2019 10:00:00 15,5 12,8 4 2 N 1023,2
09.10.2019 09:00:00 12,9 11,3 8 4 NNE 1023,2
09.10.2019 08:00:00 12,0 10,4 4 2 NNW 1023,3
09.10.2019 07:00:00 11,9 10,3 4 2 N 1023,4
09.10.2019 06:00:00 11,6 10,0 5 3 NW 1023,2
09.10.2019 05:00:00 11,5 9,9 4 2 NNW 1023,2
09.10.2019 04:00:00 11,1 9,5 4 2 NNE 1023,3
09.10.2019 03:00:00 10,5 8,9 4 2 N 1023,8
09.10.2019 02:00:00 9,6 8,0 4 2 N 1024,3
09.10.2019 01:00:00 10,6 9,0 0 0 N 1024,1
09.10.2019 00:00:00 9,8 8,2 2 1 NW 1023,9
08.10.2019 23:00:00 9,1 7,5 0 0 N 1024,0
08.10.2019 22:00:00 9,8 8,2 0 0 N 1023,7
08.10.2019 21:00:00 10,8 7,8 0 0 N 1023,5
08.10.2019 20:00:00 12,6 8,6 5 3 S 1023,2
08.10.2019 19:00:00 14,0 8,3 0 0 N 1023,1
08.10.2019 18:00:00 18,1 8,9 4 2 WSW 1022,9
08.10.2019 17:00:00 19,1 9,5 5 3 W 1023,0
08.10.2019 16:00:00 19,2 9,0 5 3 W 1023,4
08.10.2019 15:00:00 18,1 7,4 0 0 N 1023,7
08.10.2019 14:00:00 17,4 7,9 4 2 E 1024,4

tt = temperature
td = dewpoint
ff = wind speed
dd = wind direction
ppp = reduced air pressure

Next stations